sensor_id;sensor_type;location;lat;lon;timestamp;temperature;humidity
33655;DHT22;19997;51.274;22.506;2022-12-18T00:02:21;-4.10;99.30
33655;DHT22;19997;51.274;22.506;2022-12-18T00:04:48;-4.10;99.20
33655;DHT22;19997;51.274;22.506;2022-12-18T00:07:15;-4.10;99.20
33655;DHT22;19997;51.274;22.506;2022-12-18T00:09:42;-4.10;99.40
33655;DHT22;19997;51.274;22.506;2022-12-18T00:12:09;-4.10;99.50
33655;DHT22;19997;51.274;22.506;2022-12-18T00:14:36;-4.10;99.40
33655;DHT22;19997;51.274;22.506;2022-12-18T00:17:03;-4.10;99.40
33655;DHT22;19997;51.274;22.506;2022-12-18T00:19:32;-4.10;99.30
33655;DHT22;19997;51.274;22.506;2022-12-18T00:21:59;-4.10;99.40
33655;DHT22;19997;51.274;22.506;2022-12-18T00:24:26;-4.10;99.60
33655;DHT22;19997;51.274;22.506;2022-12-18T00:26:53;-4.10;99.50
33655;DHT22;19997;51.274;22.506;2022-12-18T00:29:20;-4.10;99.60
33655;DHT22;19997;51.274;22.506;2022-12-18T00:31:47;-4.10;99.70
33655;DHT22;19997;51.274;22.506;2022-12-18T00:34:14;-4.10;99.80
33655;DHT22;19997;51.274;22.506;2022-12-18T00:36:43;-4.10;99.70
33655;DHT22;19997;51.274;22.506;2022-12-18T00:39:11;-4.10;99.60
33655;DHT22;19997;51.274;22.506;2022-12-18T00:41:39;-4.10;99.40
33655;DHT22;19997;51.274;22.506;2022-12-18T00:44:24;-4.10;99.60
33655;DHT22;19997;51.274;22.506;2022-12-18T00:46:51;-4.20;99.60
33655;DHT22;19997;51.274;22.506;2022-12-18T00:49:19;-4.20;99.30
33655;DHT22;19997;51.274;22.506;2022-12-18T00:51:48;-4.20;99.50
33655;DHT22;19997;51.274;22.506;2022-12-18T00:54:16;-4.20;99.70
33655;DHT22;19997;51.274;22.506;2022-12-18T00:56:43;-4.30;99.90
33655;DHT22;19997;51.274;22.506;2022-12-18T00:59:11;-4.30;99.90
33655;DHT22;19997;51.274;22.506;2022-12-18T01:01:38;-4.20;99.90
33655;DHT22;19997;51.274;22.506;2022-12-18T01:04:05;-4.30;99.90
33655;DHT22;19997;51.274;22.506;2022-12-18T01:06:32;-4.30;99.90
33655;DHT22;19997;51.274;22.506;2022-12-18T01:09:01;-4.20;99.90
33655;DHT22;19997;51.274;22.506;2022-12-18T01:11:28;-4.20;99.90
33655;DHT22;19997;51.274;22.506;2022-12-18T01:13:56;-4.10;99.90
33655;DHT22;19997;51.274;22.506;2022-12-18T01:16:25;-4.10;99.80
33655;DHT22;19997;51.274;22.506;2022-12-18T01:18:53;-4.00;99.70
33655;DHT22;19997;51.274;22.506;2022-12-18T01:21:22;-4.00;99.40
33655;DHT22;19997;51.274;22.506;2022-12-18T01:23:52;-4.10;99.20
33655;DHT22;19997;51.274;22.506;2022-12-18T01:26:21;-4.10;99.40
33655;DHT22;19997;51.274;22.506;2022-12-18T01:28:50;-4.10;99.70
33655;DHT22;19997;51.274;22.506;2022-12-18T01:31:19;-4.10;99.70
33655;DHT22;19997;51.274;22.506;2022-12-18T01:33:48;-4.10;99.60
33655;DHT22;19997;51.274;22.506;2022-12-18T01:36:16;-4.10;99.60
33655;DHT22;19997;51.274;22.506;2022-12-18T01:38:44;-4.10;99.40
33655;DHT22;19997;51.274;22.506;2022-12-18T01:41:13;-4.10;99.50
33655;DHT22;19997;51.274;22.506;2022-12-18T01:43:47;-4.10;99.70
33655;DHT22;19997;51.274;22.506;2022-12-18T01:46:16;-4.10;99.90
33655;DHT22;19997;51.274;22.506;2022-12-18T01:48:44;-4.10;99.90
33655;DHT22;19997;51.274;22.506;2022-12-18T01:51:13;-4.00;99.90
33655;DHT22;19997;51.274;22.506;2022-12-18T01:53:41;-4.00;99.70
33655;DHT22;19997;51.274;22.506;2022-12-18T01:56:12;-4.00;99.60
33655;DHT22;19997;51.274;22.506;2022-12-18T01:58:50;-4.00;99.80
33655;DHT22;19997;51.274;22.506;2022-12-18T02:01:20;-4.00;99.50
33655;DHT22;19997;51.274;22.506;2022-12-18T02:03:48;-4.00;99.60
33655;DHT22;19997;51.274;22.506;2022-12-18T02:06:17;-4.00;99.70
33655;DHT22;19997;51.274;22.506;2022-12-18T02:09:06;-4.00;99.80
33655;DHT22;19997;51.274;22.506;2022-12-18T02:11:41;-4.00;99.90
33655;DHT22;19997;51.274;22.506;2022-12-18T02:14:18;-3.90;99.90
33655;DHT22;19997;51.274;22.506;2022-12-18T02:16:52;-3.90;99.60
33655;DHT22;19997;51.274;22.506;2022-12-18T02:19:42;-3.90;99.50
33655;DHT22;19997;51.274;22.506;2022-12-18T02:22:26;-3.90;99.50
33655;DHT22;19997;51.274;22.506;2022-12-18T02:25:02;-3.90;99.50
33655;DHT22;19997;51.274;22.506;2022-12-18T02:27:34;-3.90;99.60
33655;DHT22;19997;51.274;22.506;2022-12-18T02:30:04;-3.90;99.70
33655;DHT22;19997;51.274;22.506;2022-12-18T02:32:39;-3.90;99.90
33655;DHT22;19997;51.274;22.506;2022-12-18T02:35:18;-3.90;99.90
33655;DHT22;19997;51.274;22.506;2022-12-18T02:37:48;-3.90;99.90
33655;DHT22;19997;51.274;22.506;2022-12-18T02:40:17;-3.90;99.90
33655;DHT22;19997;51.274;22.506;2022-12-18T02:42:47;-3.90;99.90
33655;DHT22;19997;51.274;22.506;2022-12-18T02:45:17;-3.80;99.90
33655;DHT22;19997;51.274;22.506;2022-12-18T02:47:48;-3.90;99.90
33655;DHT22;19997;51.274;22.506;2022-12-18T02:50:22;-3.80;99.90
33655;DHT22;19997;51.274;22.506;2022-12-18T02:53:03;-3.80;99.90
33655;DHT22;19997;51.274;22.506;2022-12-18T02:55:42;-3.90;99.90
33655;DHT22;19997;51.274;22.506;2022-12-18T02:58:23;-3.80;99.90
33655;DHT22;19997;51.274;22.506;2022-12-18T03:01:01;-3.70;99.90
33655;DHT22;19997;51.274;22.506;2022-12-18T03:03:33;-3.70;99.90
33655;DHT22;19997;51.274;22.506;2022-12-18T03:06:05;-3.80;99.90
33655;DHT22;19997;51.274;22.506;2022-12-18T03:08:38;-3.70;99.90
33655;DHT22;19997;51.274;22.506;2022-12-18T03:11:08;-3.70;99.90
33655;DHT22;19997;51.274;22.506;2022-12-18T03:13:43;-3.70;99.90
33655;DHT22;19997;51.274;22.506;2022-12-18T03:16:16;-3.60;99.90
33655;DHT22;19997;51.274;22.506;2022-12-18T03:18:47;-3.60;99.90
33655;DHT22;19997;51.274;22.506;2022-12-18T03:21:18;-3.70;99.90
33655;DHT22;19997;51.274;22.506;2022-12-18T03:23:49;-3.70;99.90
33655;DHT22;19997;51.274;22.506;2022-12-18T03:26:20;-3.70;99.90
33655;DHT22;19997;51.274;22.506;2022-12-18T03:28:56;-3.60;99.90
33655;DHT22;19997;51.274;22.506;2022-12-18T03:31:28;-3.60;99.90
33655;DHT22;19997;51.274;22.506;2022-12-18T03:33:59;-3.60;99.90
33655;DHT22;19997;51.274;22.506;2022-12-18T03:36:36;-3.50;99.90
33655;DHT22;19997;51.274;22.506;2022-12-18T03:39:04;-3.60;99.90
33655;DHT22;19997;51.274;22.506;2022-12-18T03:41:39;-3.60;99.90
33655;DHT22;19997;51.274;22.506;2022-12-18T03:44:29;-3.50;99.90
33655;DHT22;19997;51.274;22.506;2022-12-18T03:47:04;-3.50;99.90
33655;DHT22;19997;51.274;22.506;2022-12-18T03:49:36;-3.50;99.90
33655;DHT22;19997;51.274;22.506;2022-12-18T03:52:09;-3.40;99.90
33655;DHT22;19997;51.274;22.506;2022-12-18T03:54:40;-3.30;99.90
33655;DHT22;19997;51.274;22.506;2022-12-18T03:57:15;-3.30;99.90
33655;DHT22;19997;51.274;22.506;2022-12-18T03:59:47;-3.30;99.90
33655;DHT22;19997;51.274;22.506;2022-12-18T04:02:18;-3.20;99.90
33655;DHT22;19997;51.274;22.506;2022-12-18T04:04:47;-3.20;99.90
33655;DHT22;19997;51.274;22.506;2022-12-18T04:07:16;-3.20;99.80
33655;DHT22;19997;51.274;22.506;2022-12-18T04:09:46;-3.10;99.90
33655;DHT22;19997;51.274;22.506;2022-12-18T04:12:14;-3.10;99.70
33655;DHT22;19997;51.274;22.506;2022-12-18T04:14:41;-3.10;99.50
33655;DHT22;19997;51.274;22.506;2022-12-18T04:17:10;-3.10;99.20
33655;DHT22;19997;51.274;22.506;2022-12-18T04:19:37;-3.10;99.40
33655;DHT22;19997;51.274;22.506;2022-12-18T04:22:04;-3.10;99.50
33655;DHT22;19997;51.274;22.506;2022-12-18T04:24:38;-3.10;99.50
33655;DHT22;19997;51.274;22.506;2022-12-18T04:27:12;-3.10;99.60
33655;DHT22;19997;51.274;22.506;2022-12-18T04:29:43;-3.00;99.50
33655;DHT22;19997;51.274;22.506;2022-12-18T04:32:12;-2.90;99.20
33655;DHT22;19997;51.274;22.506;2022-12-18T04:34:41;-2.90;98.40
33655;DHT22;19997;51.274;22.506;2022-12-18T04:37:09;-3.00;98.40
33655;DHT22;19997;51.274;22.506;2022-12-18T04:39:36;-3.00;98.30
33655;DHT22;19997;51.274;22.506;2022-12-18T04:42:08;-3.00;98.50
33655;DHT22;19997;51.274;22.506;2022-12-18T04:44:36;-3.00;98.10
33655;DHT22;19997;51.274;22.506;2022-12-18T04:47:03;-3.00;98.00
33655;DHT22;19997;51.274;22.506;2022-12-18T04:49:32;-3.00;98.10
33655;DHT22;19997;51.274;22.506;2022-12-18T04:51:59;-3.00;97.70
33655;DHT22;19997;51.274;22.506;2022-12-18T04:54:26;-3.10;97.50
33655;DHT22;19997;51.274;22.506;2022-12-18T04:56:53;-3.10;97.60
33655;DHT22;19997;51.274;22.506;2022-12-18T04:59:20;-3.10;97.50
33655;DHT22;19997;51.274;22.506;2022-12-18T05:01:47;-3.10;97.50
33655;DHT22;19997;51.274;22.506;2022-12-18T05:04:14;-3.20;97.40
33655;DHT22;19997;51.274;22.506;2022-12-18T05:06:42;-3.10;97.80
33655;DHT22;19997;51.274;22.506;2022-12-18T05:09:09;-3.10;97.50
33655;DHT22;19997;51.274;22.506;2022-12-18T05:11:36;-3.20;97.20
33655;DHT22;19997;51.274;22.506;2022-12-18T05:14:03;-3.20;97.30
33655;DHT22;19997;51.274;22.506;2022-12-18T05:16:30;-3.30;97.40
33655;DHT22;19997;51.274;22.506;2022-12-18T05:18:58;-3.20;97.50
33655;DHT22;19997;51.274;22.506;2022-12-18T05:21:25;-3.30;97.40
33655;DHT22;19997;51.274;22.506;2022-12-18T05:23:53;-3.30;97.60
33655;DHT22;19997;51.274;22.506;2022-12-18T05:26:20;-3.30;97.40
33655;DHT22;19997;51.274;22.506;2022-12-18T05:28:48;-3.20;97.40
33655;DHT22;19997;51.274;22.506;2022-12-18T05:31:15;-3.30;97.40
33655;DHT22;19997;51.274;22.506;2022-12-18T05:33:42;-3.30;97.60
33655;DHT22;19997;51.274;22.506;2022-12-18T05:36:09;-3.20;97.40
33655;DHT22;19997;51.274;22.506;2022-12-18T05:38:38;-3.20;97.20
33655;DHT22;19997;51.274;22.506;2022-12-18T05:41:07;-3.20;97.20
33655;DHT22;19997;51.274;22.506;2022-12-18T05:43:36;-3.20;97.10
33655;DHT22;19997;51.274;22.506;2022-12-18T05:46:05;-3.10;96.80
33655;DHT22;19997;51.274;22.506;2022-12-18T05:48:33;-3.20;96.70
33655;DHT22;19997;51.274;22.506;2022-12-18T05:51:05;-3.20;96.50
33655;DHT22;19997;51.274;22.506;2022-12-18T05:53:33;-3.20;96.40
33655;DHT22;19997;51.274;22.506;2022-12-18T05:56:01;-3.20;96.30
33655;DHT22;19997;51.274;22.506;2022-12-18T05:58:30;-3.30;96.60
33655;DHT22;19997;51.274;22.506;2022-12-18T06:00:58;-3.30;96.70
33655;DHT22;19997;51.274;22.506;2022-12-18T06:03:32;-3.30;96.70
33655;DHT22;19997;51.274;22.506;2022-12-18T06:05:59;-3.30;96.60
33655;DHT22;19997;51.274;22.506;2022-12-18T06:08:26;-3.30;96.60
33655;DHT22;19997;51.274;22.506;2022-12-18T06:10:53;-3.20;96.50
33655;DHT22;19997;51.274;22.506;2022-12-18T06:13:20;-3.30;96.30
33655;DHT22;19997;51.274;22.506;2022-12-18T06:15:49;-3.30;96.50
33655;DHT22;19997;51.274;22.506;2022-12-18T06:18:16;-3.30;96.30
33655;DHT22;19997;51.274;22.506;2022-12-18T06:20:43;-3.30;96.40
33655;DHT22;19997;51.274;22.506;2022-12-18T06:23:10;-3.30;96.30
33655;DHT22;19997;51.274;22.506;2022-12-18T06:25:38;-3.40;96.60
33655;DHT22;19997;51.274;22.506;2022-12-18T06:28:05;-3.30;96.80
33655;DHT22;19997;51.274;22.506;2022-12-18T06:30:32;-3.30;96.90
33655;DHT22;19997;51.274;22.506;2022-12-18T06:33:01;-3.20;96.80
33655;DHT22;19997;51.274;22.506;2022-12-18T06:35:28;-3.20;96.90
33655;DHT22;19997;51.274;22.506;2022-12-18T06:37:55;-3.10;96.80
33655;DHT22;19997;51.274;22.506;2022-12-18T06:40:22;-3.10;96.90
33655;DHT22;19997;51.274;22.506;2022-12-18T06:42:49;-3.10;96.90
33655;DHT22;19997;51.274;22.506;2022-12-18T06:45:17;-3.00;97.00
33655;DHT22;19997;51.274;22.506;2022-12-18T06:47:44;-3.00;96.80
33655;DHT22;19997;51.274;22.506;2022-12-18T06:50:12;-3.00;96.70
33655;DHT22;19997;51.274;22.506;2022-12-18T06:52:40;-3.00;96.80
33655;DHT22;19997;51.274;22.506;2022-12-18T06:55:11;-2.90;96.80
33655;DHT22;19997;51.274;22.506;2022-12-18T06:57:38;-2.90;96.90
33655;DHT22;19997;51.274;22.506;2022-12-18T07:00:07;-2.90;97.00
33655;DHT22;19997;51.274;22.506;2022-12-18T07:02:34;-2.80;96.80
33655;DHT22;19997;51.274;22.506;2022-12-18T07:05:04;-2.80;97.00
33655;DHT22;19997;51.274;22.506;2022-12-18T07:07:33;-2.70;96.50
33655;DHT22;19997;51.274;22.506;2022-12-18T07:10:00;-2.70;96.40
33655;DHT22;19997;51.274;22.506;2022-12-18T07:12:27;-2.70;96.40
33655;DHT22;19997;51.274;22.506;2022-12-18T07:14:54;-2.70;96.30
33655;DHT22;19997;51.274;22.506;2022-12-18T07:17:21;-2.60;96.40
33655;DHT22;19997;51.274;22.506;2022-12-18T07:19:49;-2.60;96.40
33655;DHT22;19997;51.274;22.506;2022-12-18T07:22:16;-2.60;96.30
33655;DHT22;19997;51.274;22.506;2022-12-18T07:24:44;-2.50;96.30
33655;DHT22;19997;51.274;22.506;2022-12-18T07:27:11;-2.50;96.30
33655;DHT22;19997;51.274;22.506;2022-12-18T07:29:38;-2.40;96.00
33655;DHT22;19997;51.274;22.506;2022-12-18T07:32:05;-2.40;96.10
33655;DHT22;19997;51.274;22.506;2022-12-18T07:34:32;-2.40;95.80
33655;DHT22;19997;51.274;22.506;2022-12-18T07:36:59;-2.30;96.00
33655;DHT22;19997;51.274;22.506;2022-12-18T07:39:26;-2.30;96.00
33655;DHT22;19997;51.274;22.506;2022-12-18T07:41:55;-2.20;95.90
33655;DHT22;19997;51.274;22.506;2022-12-18T07:44:39;-2.20;95.30
33655;DHT22;19997;51.274;22.506;2022-12-18T07:47:06;-2.20;95.40
33655;DHT22;19997;51.274;22.506;2022-12-18T07:49:34;-2.20;95.40
33655;DHT22;19997;51.274;22.506;2022-12-18T07:52:01;-2.20;95.50
33655;DHT22;19997;51.274;22.506;2022-12-18T07:54:28;-2.10;95.70
33655;DHT22;19997;51.274;22.506;2022-12-18T07:56:56;-2.00;95.70
33655;DHT22;19997;51.274;22.506;2022-12-18T07:59:23;-2.00;95.20
33655;DHT22;19997;51.274;22.506;2022-12-18T08:01:50;-2.00;94.90
33655;DHT22;19997;51.274;22.506;2022-12-18T08:04:17;-2.00;94.70
33655;DHT22;19997;51.274;22.506;2022-12-18T08:06:45;-2.00;94.90
33655;DHT22;19997;51.274;22.506;2022-12-18T08:09:12;-2.00;94.50
33655;DHT22;19997;51.274;22.506;2022-12-18T08:11:39;-2.00;94.50
33655;DHT22;19997;51.274;22.506;2022-12-18T08:14:08;-2.00;94.30
33655;DHT22;19997;51.274;22.506;2022-12-18T08:16:35;-1.90;94.20
33655;DHT22;19997;51.274;22.506;2022-12-18T08:19:03;-2.00;94.00
33655;DHT22;19997;51.274;22.506;2022-12-18T08:21:31;-2.00;93.80
33655;DHT22;19997;51.274;22.506;2022-12-18T08:23:59;-2.00;94.00
33655;DHT22;19997;51.274;22.506;2022-12-18T08:26:29;-2.00;94.10
33655;DHT22;19997;51.274;22.506;2022-12-18T08:28:59;-1.90;94.00
33655;DHT22;19997;51.274;22.506;2022-12-18T08:31:28;-1.90;93.70
33655;DHT22;19997;51.274;22.506;2022-12-18T08:33:56;-1.90;93.50
33655;DHT22;19997;51.274;22.506;2022-12-18T08:36:23;-1.90;93.50
33655;DHT22;19997;51.274;22.506;2022-12-18T08:38:50;-1.80;93.20
33655;DHT22;19997;51.274;22.506;2022-12-18T08:41:18;-1.90;93.10
33655;DHT22;19997;51.274;22.506;2022-12-18T08:43:45;-1.80;93.20
33655;DHT22;19997;51.274;22.506;2022-12-18T08:46:34;-1.80;93.30
33655;DHT22;19997;51.274;22.506;2022-12-18T08:49:02;-1.70;93.10
33655;DHT22;19997;51.274;22.506;2022-12-18T08:51:29;-1.70;93.00
33655;DHT22;19997;51.274;22.506;2022-12-18T08:53:56;-1.70;92.90
33655;DHT22;19997;51.274;22.506;2022-12-18T08:56:23;-1.70;92.70
33655;DHT22;19997;51.274;22.506;2022-12-18T08:58:52;-1.70;92.60
33655;DHT22;19997;51.274;22.506;2022-12-18T09:01:20;-1.70;92.60
33655;DHT22;19997;51.274;22.506;2022-12-18T09:03:49;-1.70;92.50
33655;DHT22;19997;51.274;22.506;2022-12-18T09:06:17;-1.70;92.50
33655;DHT22;19997;51.274;22.506;2022-12-18T09:08:47;-1.70;92.40
33655;DHT22;19997;51.274;22.506;2022-12-18T09:11:15;-1.70;92.30
33655;DHT22;19997;51.274;22.506;2022-12-18T09:13:45;-1.70;92.50
33655;DHT22;19997;51.274;22.506;2022-12-18T09:16:12;-1.60;92.40
33655;DHT22;19997;51.274;22.506;2022-12-18T09:18:39;-1.60;92.10
33655;DHT22;19997;51.274;22.506;2022-12-18T09:21:13;-1.60;92.10
33655;DHT22;19997;51.274;22.506;2022-12-18T09:23:40;-1.50;92.10
33655;DHT22;19997;51.274;22.506;2022-12-18T09:26:08;-1.50;91.60
33655;DHT22;19997;51.274;22.506;2022-12-18T09:28:35;-1.60;91.50
33655;DHT22;19997;51.274;22.506;2022-12-18T09:31:05;-1.60;91.50
33655;DHT22;19997;51.274;22.506;2022-12-18T09:33:33;-1.60;91.40
33655;DHT22;19997;51.274;22.506;2022-12-18T09:36:02;-1.60;91.40
33655;DHT22;19997;51.274;22.506;2022-12-18T09:38:31;-1.60;91.40
33655;DHT22;19997;51.274;22.506;2022-12-18T09:41:01;-1.50;91.20
33655;DHT22;19997;51.274;22.506;2022-12-18T09:43:37;-1.50;91.30
33655;DHT22;19997;51.274;22.506;2022-12-18T09:46:10;-1.50;91.00
33655;DHT22;19997;51.274;22.506;2022-12-18T09:48:41;-1.50;90.80
33655;DHT22;19997;51.274;22.506;2022-12-18T09:51:13;-1.50;90.90
33655;DHT22;19997;51.274;22.506;2022-12-18T09:53:47;-1.50;91.00
33655;DHT22;19997;51.274;22.506;2022-12-18T09:56:19;-1.50;90.70
33655;DHT22;19997;51.274;22.506;2022-12-18T09:58:51;-1.60;90.60
33655;DHT22;19997;51.274;22.506;2022-12-18T10:01:22;-1.60;90.80
33655;DHT22;19997;51.274;22.506;2022-12-18T10:03:50;-1.50;90.80
33655;DHT22;19997;51.274;22.506;2022-12-18T10:06:22;-1.40;90.70
33655;DHT22;19997;51.274;22.506;2022-12-18T10:08:57;-1.40;90.40
33655;DHT22;19997;51.274;22.506;2022-12-18T10:11:34;-1.40;90.20
33655;DHT22;19997;51.274;22.506;2022-12-18T10:14:10;-1.50;89.80
33655;DHT22;19997;51.274;22.506;2022-12-18T10:16:47;-1.60;89.90
33655;DHT22;19997;51.274;22.506;2022-12-18T10:19:34;-1.60;90.20
33655;DHT22;19997;51.274;22.506;2022-12-18T10:22:14;-1.50;90.30
33655;DHT22;19997;51.274;22.506;2022-12-18T10:24:53;-1.50;90.10
33655;DHT22;19997;51.274;22.506;2022-12-18T10:27:25;-1.50;89.50
33655;DHT22;19997;51.274;22.506;2022-12-18T10:29:52;-1.40;89.20
33655;DHT22;19997;51.274;22.506;2022-12-18T10:32:22;-1.50;88.90
33655;DHT22;19997;51.274;22.506;2022-12-18T10:34:52;-1.50;88.70
33655;DHT22;19997;51.274;22.506;2022-12-18T10:37:21;-1.50;88.90
33655;DHT22;19997;51.274;22.506;2022-12-18T10:40:10;-1.50;88.70
33655;DHT22;19997;51.274;22.506;2022-12-18T10:42:38;-1.60;88.20
33655;DHT22;19997;51.274;22.506;2022-12-18T10:45:11;-1.60;88.40
33655;DHT22;19997;51.274;22.506;2022-12-18T10:47:43;-1.50;88.30
33655;DHT22;19997;51.274;22.506;2022-12-18T10:50:20;-1.60;87.80
33655;DHT22;19997;51.274;22.506;2022-12-18T10:52:57;-1.70;88.00
33655;DHT22;19997;51.274;22.506;2022-12-18T10:55:30;-1.70;88.20
33655;DHT22;19997;51.274;22.506;2022-12-18T10:58:15;-1.80;88.10
33655;DHT22;19997;51.274;22.506;2022-12-18T11:00:42;-1.80;88.60
33655;DHT22;19997;51.274;22.506;2022-12-18T11:03:29;-1.80;89.00
33655;DHT22;19997;51.274;22.506;2022-12-18T11:06:02;-1.70;88.80
33655;DHT22;19997;51.274;22.506;2022-12-18T11:08:30;-1.70;88.30
33655;DHT22;19997;51.274;22.506;2022-12-18T11:10:58;-1.70;88.30
33655;DHT22;19997;51.274;22.506;2022-12-18T11:13:27;-1.60;88.20
33655;DHT22;19997;51.274;22.506;2022-12-18T11:15:55;-1.70;87.80
33655;DHT22;19997;51.274;22.506;2022-12-18T11:18:26;-1.70;87.40
33655;DHT22;19997;51.274;22.506;2022-12-18T11:20:56;-1.80;87.60
33655;DHT22;19997;51.274;22.506;2022-12-18T11:23:24;-1.90;87.60
33655;DHT22;19997;51.274;22.506;2022-12-18T11:25:58;-1.90;87.70
33655;DHT22;19997;51.274;22.506;2022-12-18T11:28:37;-2.00;87.40
33655;DHT22;19997;51.274;22.506;2022-12-18T11:31:23;-2.00;87.80
33655;DHT22;19997;51.274;22.506;2022-12-18T11:33:59;-2.10;87.90
33655;DHT22;19997;51.274;22.506;2022-12-18T11:36:31;-2.00;88.10
33655;DHT22;19997;51.274;22.506;2022-12-18T11:39:02;-2.00;87.80
33655;DHT22;19997;51.274;22.506;2022-12-18T11:41:37;-2.10;87.70
33655;DHT22;19997;51.274;22.506;2022-12-18T11:44:27;-2.10;87.90
33655;DHT22;19997;51.274;22.506;2022-12-18T11:47:00;-2.00;88.00
33655;DHT22;19997;51.274;22.506;2022-12-18T11:49:32;-2.00;88.00
33655;DHT22;19997;51.274;22.506;2022-12-18T11:52:03;-2.00;87.70
33655;DHT22;19997;51.274;22.506;2022-12-18T11:54:31;-2.00;87.50
33655;DHT22;19997;51.274;22.506;2022-12-18T11:57:06;-2.00;87.70
33655;DHT22;19997;51.274;22.506;2022-12-18T11:59:40;-1.90;88.20
33655;DHT22;19997;51.274;22.506;2022-12-18T12:05:25;-1.80;87.90
33655;DHT22;19997;51.274;22.506;2022-12-18T12:07:58;-1.70;87.40
33655;DHT22;19997;51.274;22.506;2022-12-18T12:10:41;-1.80;87.30
33655;DHT22;19997;51.274;22.506;2022-12-18T12:13:23;-1.90;87.10
33655;DHT22;19997;51.274;22.506;2022-12-18T12:16:04;-2.00;87.20
33655;DHT22;19997;51.274;22.506;2022-12-18T12:18:41;-2.00;87.60
33655;DHT22;19997;51.274;22.506;2022-12-18T12:21:17;-2.00;88.60
33655;DHT22;19997;51.274;22.506;2022-12-18T12:23:50;-2.00;87.90
33655;DHT22;19997;51.274;22.506;2022-12-18T12:26:26;-2.00;87.90
33655;DHT22;19997;51.274;22.506;2022-12-18T12:29:23;-2.00;87.70
33655;DHT22;19997;51.274;22.506;2022-12-18T12:32:02;-2.00;87.60
33655;DHT22;19997;51.274;22.506;2022-12-18T12:34:37;-2.00;87.70
33655;DHT22;19997;51.274;22.506;2022-12-18T12:37:16;-2.00;87.60
33655;DHT22;19997;51.274;22.506;2022-12-18T12:39:48;-2.10;87.50
33655;DHT22;19997;51.274;22.506;2022-12-18T12:42:20;-2.10;87.50
33655;DHT22;19997;51.274;22.506;2022-12-18T12:45:18;-2.20;87.80
33655;DHT22;19997;51.274;22.506;2022-12-18T12:47:48;-2.30;87.60
33655;DHT22;19997;51.274;22.506;2022-12-18T12:50:19;-2.40;87.80
33655;DHT22;19997;51.274;22.506;2022-12-18T12:52:51;-2.50;88.20
33655;DHT22;19997;51.274;22.506;2022-12-18T12:55:21;-2.50;88.40
33655;DHT22;19997;51.274;22.506;2022-12-18T12:57:55;-2.50;88.50
33655;DHT22;19997;51.274;22.506;2022-12-18T13:00:26;-2.50;88.70
33655;DHT22;19997;51.274;22.506;2022-12-18T13:03:01;-2.50;88.70
33655;DHT22;19997;51.274;22.506;2022-12-18T13:05:34;-2.60;89.00
33655;DHT22;19997;51.274;22.506;2022-12-18T13:08:07;-2.60;88.90
33655;DHT22;19997;51.274;22.506;2022-12-18T13:10:36;-2.60;88.90
33655;DHT22;19997;51.274;22.506;2022-12-18T13:13:05;-2.60;88.90
33655;DHT22;19997;51.274;22.506;2022-12-18T13:15:37;-2.60;89.00
33655;DHT22;19997;51.274;22.506;2022-12-18T13:18:23;-2.70;89.20
33655;DHT22;19997;51.274;22.506;2022-12-18T13:21:01;-2.70;89.30
33655;DHT22;19997;51.274;22.506;2022-12-18T13:23:33;-2.60;89.40
33655;DHT22;19997;51.274;22.506;2022-12-18T13:26:29;-2.70;89.10
33655;DHT22;19997;51.274;22.506;2022-12-18T13:28:59;-2.80;89.30
33655;DHT22;19997;51.274;22.506;2022-12-18T13:34:37;-2.80;89.60
33655;DHT22;19997;51.274;22.506;2022-12-18T13:40:53;-2.80;89.80
33655;DHT22;19997;51.274;22.506;2022-12-18T13:43:35;-2.70;89.90
33655;DHT22;19997;51.274;22.506;2022-12-18T13:46:18;-2.60;89.80
33655;DHT22;19997;51.274;22.506;2022-12-18T13:48:52;-2.60;89.70
33655;DHT22;19997;51.274;22.506;2022-12-18T13:51:23;-2.60;89.60
33655;DHT22;19997;51.274;22.506;2022-12-18T13:53:53;-2.60;89.50
33655;DHT22;19997;51.274;22.506;2022-12-18T13:56:25;-2.70;89.40
33655;DHT22;19997;51.274;22.506;2022-12-18T13:59:11;-2.70;89.60
33655;DHT22;19997;51.274;22.506;2022-12-18T14:01:45;-2.80;89.60
33655;DHT22;19997;51.274;22.506;2022-12-18T14:04:19;-2.90;89.70
33655;DHT22;19997;51.274;22.506;2022-12-18T14:06:50;-2.90;89.80
33655;DHT22;19997;51.274;22.506;2022-12-18T14:09:26;-2.90;90.00
33655;DHT22;19997;51.274;22.506;2022-12-18T14:11:54;-3.00;90.00
33655;DHT22;19997;51.274;22.506;2022-12-18T14:14:44;-3.00;90.10
33655;DHT22;19997;51.274;22.506;2022-12-18T14:17:13;-3.10;90.20
33655;DHT22;19997;51.274;22.506;2022-12-18T14:19:42;-3.10;90.30
33655;DHT22;19997;51.274;22.506;2022-12-18T14:22:19;-3.10;90.30
33655;DHT22;19997;51.274;22.506;2022-12-18T14:24:47;-3.20;90.40
33655;DHT22;19997;51.274;22.506;2022-12-18T14:27:31;-3.20;90.50
33655;DHT22;19997;51.274;22.506;2022-12-18T14:29:58;-3.30;90.60
33655;DHT22;19997;51.274;22.506;2022-12-18T14:32:25;-3.20;90.70
33655;DHT22;19997;51.274;22.506;2022-12-18T14:34:53;-3.20;90.70
33655;DHT22;19997;51.274;22.506;2022-12-18T14:37:24;-3.20;90.80
33655;DHT22;19997;51.274;22.506;2022-12-18T14:39:56;-3.20;90.80
33655;DHT22;19997;51.274;22.506;2022-12-18T14:42:24;-3.10;90.90
33655;DHT22;19997;51.274;22.506;2022-12-18T14:47:54;-3.00;90.80
33655;DHT22;19997;51.274;22.506;2022-12-18T14:50:21;-3.00;90.70
33655;DHT22;19997;51.274;22.506;2022-12-18T14:52:50;-2.90;90.80
33655;DHT22;19997;51.274;22.506;2022-12-18T14:55:19;-2.90;90.80
33655;DHT22;19997;51.274;22.506;2022-12-18T14:57:50;-2.90;90.80
33655;DHT22;19997;51.274;22.506;2022-12-18T15:00:20;-2.80;90.80
33655;DHT22;19997;51.274;22.506;2022-12-18T15:02:50;-2.70;90.70
33655;DHT22;19997;51.274;22.506;2022-12-18T15:05:19;-2.70;90.70
33655;DHT22;19997;51.274;22.506;2022-12-18T15:07:50;-2.70;91.00
33655;DHT22;19997;51.274;22.506;2022-12-18T15:10:19;-2.60;90.60
33655;DHT22;19997;51.274;22.506;2022-12-18T15:12:47;-2.60;90.60
33655;DHT22;19997;51.274;22.506;2022-12-18T15:15:47;-2.60;90.60
33655;DHT22;19997;51.274;22.506;2022-12-18T15:18:16;-2.60;90.50
33655;DHT22;19997;51.274;22.506;2022-12-18T15:20:46;-2.60;90.50
33655;DHT22;19997;51.274;22.506;2022-12-18T15:23:20;-2.60;90.50
33655;DHT22;19997;51.274;22.506;2022-12-18T15:25:54;-2.50;90.50
33655;DHT22;19997;51.274;22.506;2022-12-18T15:28:24;-2.50;90.50
33655;DHT22;19997;51.274;22.506;2022-12-18T15:31:02;-2.50;90.50
33655;DHT22;19997;51.274;22.506;2022-12-18T15:33:33;-2.50;90.50
33655;DHT22;19997;51.274;22.506;2022-12-18T15:36:01;-2.50;90.50
33655;DHT22;19997;51.274;22.506;2022-12-18T15:38:31;-2.50;90.40
33655;DHT22;19997;51.274;22.506;2022-12-18T15:40:58;-2.50;90.50
33655;DHT22;19997;51.274;22.506;2022-12-18T15:43:28;-2.50;90.50
33655;DHT22;19997;51.274;22.506;2022-12-18T15:46:01;-2.60;90.50
33655;DHT22;19997;51.274;22.506;2022-12-18T15:48:28;-2.60;90.50
33655;DHT22;19997;51.274;22.506;2022-12-18T15:50:56;-2.60;90.50
33655;DHT22;19997;51.274;22.506;2022-12-18T15:53:25;-2.70;90.40